Bangkok Bridge — 3FTZ8 — position and weather

sailwx.info

Track history (hours):
 
Tides and Currents Weather Stations Pressure Air Temp Water Temp Dewpoint Dewpoint Depression Visibility Wind Speed Wind Dir Waves Ship Positions

Bangkok Bridge

Last reported at 2016-Jul-28 15:33 UTC. Time now 2016-Jul-29 10:08 UTC.
Position N 31°20' E 121°39'.

Length 267 m; draft 9.6 m.

Type: Ship (hazmat cat A). MMSI: 353368000.

Date/timePositionNaut miles runAvg speedWind from/ knotsBaromVisibWave heightAir tempDewpointWater temp
2016-Jul-28 15:33N 31°20' E 121°39'0 0.0
2016-Jul-28 14:09N 31°20' E 121°39'0 0.0
2016-Jul-28 13:33N 31°20' E 121°39'0 0.0
2016-Jul-28 12:09N 31°20' E 121°39'0 0.0
2016-Jul-28 11:33N 31°20' E 121°39'0 0.0
2016-Jul-28 10:27N 31°20' E 121°39'0 0.0
2016-Jul-28 09:33N 31°20' E 121°39'0 0.0
2016-Jul-28 08:33N 31°20' E 121°39'0 0.0
2016-Jul-28 05:33N 31°20' E 121°39'0 0.0
2016-Jul-27 22:16N 31°21' E 121°39'5 6.9
2016-Jul-27 21:31N 31°19' E 121°45'10 9.1
2016-Jul-27 20:28N 31°16' E 121°55'9 9.5
2016-Jul-27 19:32N 31°14' E 122°06'10 9.8
2016-Jul-27 18:33N 31°08' E 122°15'9 8.7
2016-Jul-27 17:33N 31°06' E 122°25'11 9.6
2016-Jul-27 16:26N 31°07' E 122°37'6 3.0
2016-Jul-27 14:27N 31°08' E 122°44'  
2016-Jul-24 12:06N 31°08' E 122°44'0 0.0
2016-Jul-24 11:33N 31°08' E 122°44'0 0.1
2016-Jul-24 10:33N 31°08' E 122°44'0 0.1
2016-Jul-24 09:33N 31°08' E 122°44'0 0.1
2016-Jul-24 08:33N 31°08' E 122°44'0 0.0
2016-Jul-24 01:18N 31°08' E 122°44'0 0.0
2016-Jul-23 23:21N 31°08' E 122°44'0 0.0
2016-Jul-23 19:27N 31°08' E 122°44'0 0.1
2016-Jul-23 16:33N 31°08' E 122°44'0 0.1
2016-Jul-23 11:24N 31°08' E 122°44'0 0.1
2016-Jul-23 10:33N 31°08' E 122°44'  
2016-Jul-19 15:18N 34°30' E 138°25'5214.0
2016-Jul-19 11:33N 34°52' E 139°22'1515.0
2016-Jul-19 10:33N 35°02' E 139°36'1313.4
2016-Jul-19 09:33N 35°13' E 139°46'1211.7
2016-Jul-19 08:33N 35°24' E 139°42'3 3.2
2016-Jul-19 07:32N 35°27' E 139°40'0 0.0
2016-Jul-19 04:32N 35°27' E 139°40'0 0.0
2016-Jul-19 03:32N 35°27' E 139°40'0 0.0
2016-Jul-19 02:32N 35°27' E 139°40'0 0.0
2016-Jul-19 01:32N 35°27' E 139°40'0 0.0
2016-Jul-19 00:32N 35°27' E 139°40'0 0.0
2016-Jul-18 23:32N 35°27' E 139°40'0 0.0
2016-Jul-18 22:32N 35°27' E 139°40'1 1.3
2016-Jul-18 21:33N 35°27' E 139°42'1 1.3
2016-Jul-18 20:31N 35°26' E 139°43'0 0.0
2016-Jul-18 19:31N 35°26' E 139°43'0 0.1
2016-Jul-18 18:31N 35°26' E 139°43'0 0.0
2016-Jul-18 17:31N 35°26' E 139°43'0 0.1
2016-Jul-18 16:31N 35°26' E 139°43'  
Track history (hours):
 
Tides and Currents Weather Stations Pressure Air Temp Water Temp Dewpoint Dewpoint Depression Visibility Wind Speed Wind Dir Waves Ship Positions

Bangkok Bridge

Last reported at 2016-Jul-28 15:33 UTC. Time now 2016-Jul-29 10:08 UTC.
Position N 31°20' E 121°39'.

Length 267 m; draft 9.6 m.

Type: Ship (hazmat cat A). MMSI: 353368000.

Date/timePositionNaut miles runAvg speedWind from/ knotsBaromVisibWave heightAir tempDewpointWater temp
2016-Jul-28 15:33N 31°20' E 121°39'0 0.0
2016-Jul-28 14:09N 31°20' E 121°39'0 0.0
2016-Jul-28 13:33N 31°20' E 121°39'0 0.0
2016-Jul-28 12:09N 31°20' E 121°39'0 0.0
2016-Jul-28 11:33N 31°20' E 121°39'0 0.0
2016-Jul-28 10:27N 31°20' E 121°39'0 0.0
2016-Jul-28 09:33N 31°20' E 121°39'0 0.0
2016-Jul-28 08:33N 31°20' E 121°39'0 0.0
2016-Jul-28 05:33N 31°20' E 121°39'0 0.0
2016-Jul-27 22:16N 31°21' E 121°39'5 6.9
2016-Jul-27 21:31N 31°19' E 121°45'10 9.1
2016-Jul-27 20:28N 31°16' E 121°55'9 9.5
2016-Jul-27 19:32N 31°14' E 122°06'10 9.8
2016-Jul-27 18:33N 31°08' E 122°15'9 8.7
2016-Jul-27 17:33N 31°06' E 122°25'11 9.6
2016-Jul-27 16:26N 31°07' E 122°37'6 3.0
2016-Jul-27 14:27N 31°08' E 122°44'  
2016-Jul-24 12:06N 31°08' E 122°44'0 0.0
2016-Jul-24 11:33N 31°08' E 122°44'0 0.1
2016-Jul-24 10:33N 31°08' E 122°44'0 0.1
2016-Jul-24 09:33N 31°08' E 122°44'0 0.1
2016-Jul-24 08:33N 31°08' E 122°44'0 0.0
2016-Jul-24 01:18N 31°08' E 122°44'0 0.0
2016-Jul-23 23:21N 31°08' E 122°44'0 0.0
2016-Jul-23 19:27N 31°08' E 122°44'0 0.1
2016-Jul-23 16:33N 31°08' E 122°44'0 0.1
2016-Jul-23 11:24N 31°08' E 122°44'0 0.1
2016-Jul-23 10:33N 31°08' E 122°44'  
2016-Jul-19 15:18N 34°30' E 138°25'5214.0
2016-Jul-19 11:33N 34°52' E 139°22'1515.0
2016-Jul-19 10:33N 35°02' E 139°36'1313.4
2016-Jul-19 09:33N 35°13' E 139°46'1211.7
2016-Jul-19 08:33N 35°24' E 139°42'3 3.2
2016-Jul-19 07:32N 35°27' E 139°40'0 0.0
2016-Jul-19 04:32N 35°27' E 139°40'0 0.0
2016-Jul-19 03:32N 35°27' E 139°40'0 0.0
2016-Jul-19 02:32N 35°27' E 139°40'0 0.0
2016-Jul-19 01:32N 35°27' E 139°40'0 0.0
2016-Jul-19 00:32N 35°27' E 139°40'0 0.0
2016-Jul-18 23:32N 35°27' E 139°40'0 0.0
2016-Jul-18 22:32N 35°27' E 139°40'1 1.3
2016-Jul-18 21:33N 35°27' E 139°42'1 1.3
2016-Jul-18 20:31N 35°26' E 139°43'0 0.0
2016-Jul-18 19:31N 35°26' E 139°43'0 0.1
2016-Jul-18 18:31N 35°26' E 139°43'0 0.0
2016-Jul-18 17:31N 35°26' E 139°43'0 0.1
2016-Jul-18 16:31N 35°26' E 139°43'  

Dump ship's entire track history